sensor_id;sensor_type;location;lat;lon;timestamp;P1;durP1;ratioP1;P2;durP2;ratioP2
21943;SDS011;11136;48.778;9.126;2022-12-18T00:00:45;44.75;;;22.48;;
21943;SDS011;11136;48.778;9.126;2022-12-18T00:03:12;43.63;;;21.52;;
21943;SDS011;11136;48.778;9.126;2022-12-18T00:05:47;42.35;;;21.08;;
21943;SDS011;11136;48.778;9.126;2022-12-18T00:08:16;44.65;;;20.60;;
21943;SDS011;11136;48.778;9.126;2022-12-18T00:10:43;47.78;;;21.95;;
21943;SDS011;11136;48.778;9.126;2022-12-18T00:13:09;45.83;;;22.58;;
21943;SDS011;11136;48.778;9.126;2022-12-18T00:15:35;49.40;;;24.13;;
21943;SDS011;11136;48.778;9.126;2022-12-18T00:18:01;43.65;;;22.27;;
21943;SDS011;11136;48.778;9.126;2022-12-18T00:20:27;56.40;;;25.80;;
21943;SDS011;11136;48.778;9.126;2022-12-18T00:22:52;44.75;;;23.70;;
21943;SDS011;11136;48.778;9.126;2022-12-18T00:25:18;52.90;;;26.20;;
21943;SDS011;11136;48.778;9.126;2022-12-18T00:27:44;51.60;;;24.63;;
21943;SDS011;11136;48.778;9.126;2022-12-18T00:30:10;48.78;;;23.98;;
21943;SDS011;11136;48.778;9.126;2022-12-18T00:32:35;47.28;;;22.90;;
21943;SDS011;11136;48.778;9.126;2022-12-18T00:35:02;55.80;;;24.67;;
21943;SDS011;11136;48.778;9.126;2022-12-18T00:37:28;52.88;;;25.50;;
21943;SDS011;11136;48.778;9.126;2022-12-18T00:39:53;46.15;;;22.70;;
21943;SDS011;11136;48.778;9.126;2022-12-18T00:42:19;56.10;;;25.60;;
21943;SDS011;11136;48.778;9.126;2022-12-18T00:45:03;51.13;;;26.02;;
21943;SDS011;11136;48.778;9.126;2022-12-18T00:47:29;48.20;;;22.83;;
21943;SDS011;11136;48.778;9.126;2022-12-18T00:49:55;52.97;;;25.77;;
21943;SDS011;11136;48.778;9.126;2022-12-18T00:52:20;49.88;;;23.90;;
21943;SDS011;11136;48.778;9.126;2022-12-18T00:54:46;51.40;;;24.40;;
21943;SDS011;11136;48.778;9.126;2022-12-18T00:57:11;50.40;;;24.10;;
21943;SDS011;11136;48.778;9.126;2022-12-18T00:59:37;48.60;;;24.80;;
21943;SDS011;11136;48.778;9.126;2022-12-18T01:02:03;51.30;;;25.85;;
21943;SDS011;11136;48.778;9.126;2022-12-18T01:04:30;45.75;;;23.33;;
21943;SDS011;11136;48.778;9.126;2022-12-18T01:06:57;48.13;;;24.88;;
21943;SDS011;11136;48.778;9.126;2022-12-18T01:09:22;51.08;;;23.92;;
21943;SDS011;11136;48.778;9.126;2022-12-18T01:11:48;43.63;;;21.83;;
21943;SDS011;11136;48.778;9.126;2022-12-18T01:14:13;41.03;;;18.40;;
21943;SDS011;11136;48.778;9.126;2022-12-18T01:16:39;45.05;;;22.50;;
21943;SDS011;11136;48.778;9.126;2022-12-18T01:19:05;45.15;;;21.15;;
21943;SDS011;11136;48.778;9.126;2022-12-18T01:21:30;44.50;;;22.37;;
21943;SDS011;11136;48.778;9.126;2022-12-18T01:23:56;42.87;;;22.37;;
21943;SDS011;11136;48.778;9.126;2022-12-18T01:26:22;41.90;;;19.70;;
21943;SDS011;11136;48.778;9.126;2022-12-18T01:28:48;44.20;;;21.05;;
21943;SDS011;11136;48.778;9.126;2022-12-18T01:31:18;43.13;;;21.77;;
21943;SDS011;11136;48.778;9.126;2022-12-18T01:33:48;54.83;;;24.83;;
21943;SDS011;11136;48.778;9.126;2022-12-18T01:36:15;46.35;;;21.90;;
21943;SDS011;11136;48.778;9.126;2022-12-18T01:38:43;47.17;;;21.93;;
21943;SDS011;11136;48.778;9.126;2022-12-18T01:41:09;48.65;;;22.63;;
21943;SDS011;11136;48.778;9.126;2022-12-18T01:43:42;51.17;;;23.20;;
21943;SDS011;11136;48.778;9.126;2022-12-18T01:46:12;49.13;;;23.03;;
21943;SDS011;11136;48.778;9.126;2022-12-18T01:48:38;55.17;;;22.40;;
21943;SDS011;11136;48.778;9.126;2022-12-18T01:51:05;48.10;;;22.70;;
21943;SDS011;11136;48.778;9.126;2022-12-18T01:53:32;51.67;;;22.77;;
21943;SDS011;11136;48.778;9.126;2022-12-18T01:55:58;46.35;;;22.17;;
21943;SDS011;11136;48.778;9.126;2022-12-18T01:58:30;48.95;;;22.50;;
21943;SDS011;11136;48.778;9.126;2022-12-18T02:01:12;52.72;;;23.55;;
21943;SDS011;11136;48.778;9.126;2022-12-18T02:03:40;49.00;;;23.20;;
21943;SDS011;11136;48.778;9.126;2022-12-18T02:08:35;48.17;;;23.37;;
21943;SDS011;11136;48.778;9.126;2022-12-18T02:11:18;52.15;;;22.23;;
21943;SDS011;11136;48.778;9.126;2022-12-18T02:16:29;44.47;;;21.77;;
21943;SDS011;11136;48.778;9.126;2022-12-18T02:19:06;46.50;;;21.60;;
21943;SDS011;11136;48.778;9.126;2022-12-18T02:22:21;48.72;;;23.13;;
21943;SDS011;11136;48.778;9.126;2022-12-18T02:27:44;48.00;;;21.97;;
21943;SDS011;11136;48.778;9.126;2022-12-18T02:30:12;44.28;;;20.38;;
21943;SDS011;11136;48.778;9.126;2022-12-18T02:32:40;44.33;;;20.98;;
21943;SDS011;11136;48.778;9.126;2022-12-18T02:35:13;41.95;;;20.70;;
21943;SDS011;11136;48.778;9.126;2022-12-18T02:37:42;40.92;;;17.85;;
21943;SDS011;11136;48.778;9.126;2022-12-18T02:40:10;40.67;;;18.00;;
21943;SDS011;11136;48.778;9.126;2022-12-18T02:42:38;38.63;;;18.08;;
21943;SDS011;11136;48.778;9.126;2022-12-18T02:45:03;35.03;;;18.40;;
21943;SDS011;11136;48.778;9.126;2022-12-18T02:47:31;45.70;;;21.15;;
21943;SDS011;11136;48.778;9.126;2022-12-18T02:50:03;43.67;;;20.85;;
21943;SDS011;11136;48.778;9.126;2022-12-18T02:58:20;38.85;;;18.75;;
21943;SDS011;11136;48.778;9.126;2022-12-18T03:01:15;38.78;;;17.73;;
21943;SDS011;11136;48.778;9.126;2022-12-18T03:04:06;32.58;;;16.55;;
21943;SDS011;11136;48.778;9.126;2022-12-18T03:06:40;34.08;;;15.30;;
21943;SDS011;11136;48.778;9.126;2022-12-18T03:09:11;36.55;;;17.23;;
21943;SDS011;11136;48.778;9.126;2022-12-18T03:11:43;35.53;;;16.73;;
21943;SDS011;11136;48.778;9.126;2022-12-18T03:14:37;34.77;;;16.63;;
21943;SDS011;11136;48.778;9.126;2022-12-18T03:17:05;36.55;;;18.08;;
21943;SDS011;11136;48.778;9.126;2022-12-18T03:19:34;32.47;;;17.05;;
21943;SDS011;11136;48.778;9.126;2022-12-18T03:22:02;35.47;;;17.42;;
21943;SDS011;11136;48.778;9.126;2022-12-18T03:24:29;36.85;;;18.02;;
21943;SDS011;11136;48.778;9.126;2022-12-18T03:26:59;30.58;;;16.40;;
21943;SDS011;11136;48.778;9.126;2022-12-18T03:29:32;37.72;;;18.20;;
21943;SDS011;11136;48.778;9.126;2022-12-18T03:32:07;37.90;;;17.27;;
21943;SDS011;11136;48.778;9.126;2022-12-18T03:34:37;32.42;;;15.68;;
21943;SDS011;11136;48.778;9.126;2022-12-18T03:37:05;31.98;;;14.70;;
21943;SDS011;11136;48.778;9.126;2022-12-18T03:39:31;37.10;;;18.05;;
21943;SDS011;11136;48.778;9.126;2022-12-18T03:42:06;34.50;;;16.63;;
21943;SDS011;11136;48.778;9.126;2022-12-18T03:47:27;36.93;;;16.97;;
21943;SDS011;11136;48.778;9.126;2022-12-18T03:53:09;32.53;;;15.98;;
21943;SDS011;11136;48.778;9.126;2022-12-18T03:56:02;35.77;;;16.17;;
21943;SDS011;11136;48.778;9.126;2022-12-18T03:58:29;29.50;;;15.37;;
21943;SDS011;11136;48.778;9.126;2022-12-18T04:00:58;36.57;;;17.13;;
21943;SDS011;11136;48.778;9.126;2022-12-18T04:03:27;37.30;;;16.17;;
21943;SDS011;11136;48.778;9.126;2022-12-18T04:05:55;36.60;;;16.67;;
21943;SDS011;11136;48.778;9.126;2022-12-18T04:08:23;40.47;;;17.87;;
21943;SDS011;11136;48.778;9.126;2022-12-18T04:10:50;33.80;;;16.80;;
21943;SDS011;11136;48.778;9.126;2022-12-18T04:13:29;33.40;;;16.40;;
21943;SDS011;11136;48.778;9.126;2022-12-18T04:15:57;31.33;;;18.07;;
21943;SDS011;11136;48.778;9.126;2022-12-18T04:18:23;30.40;;;15.83;;
21943;SDS011;11136;48.778;9.126;2022-12-18T04:20:49;37.70;;;17.40;;
21943;SDS011;11136;48.778;9.126;2022-12-18T04:23:14;25.13;;;12.93;;
21943;SDS011;11136;48.778;9.126;2022-12-18T04:25:40;31.57;;;15.30;;
21943;SDS011;11136;48.778;9.126;2022-12-18T04:28:05;22.33;;;12.17;;
21943;SDS011;11136;48.778;9.126;2022-12-18T04:30:31;34.33;;;16.23;;
21943;SDS011;11136;48.778;9.126;2022-12-18T04:32:56;35.07;;;18.67;;
21943;SDS011;11136;48.778;9.126;2022-12-18T04:35:22;34.37;;;17.30;;
21943;SDS011;11136;48.778;9.126;2022-12-18T04:37:48;31.83;;;15.67;;
21943;SDS011;11136;48.778;9.126;2022-12-18T04:40:13;29.53;;;14.70;;
21943;SDS011;11136;48.778;9.126;2022-12-18T04:42:39;31.07;;;15.23;;
21943;SDS011;11136;48.778;9.126;2022-12-18T04:45:05;30.40;;;13.03;;
21943;SDS011;11136;48.778;9.126;2022-12-18T04:47:32;35.17;;;17.43;;
21943;SDS011;11136;48.778;9.126;2022-12-18T04:49:57;37.13;;;17.50;;
21943;SDS011;11136;48.778;9.126;2022-12-18T04:52:23;34.60;;;17.90;;
21943;SDS011;11136;48.778;9.126;2022-12-18T04:54:48;32.50;;;13.37;;
21943;SDS011;11136;48.778;9.126;2022-12-18T04:57:14;34.27;;;17.27;;
21943;SDS011;11136;48.778;9.126;2022-12-18T04:59:40;29.30;;;15.13;;
21943;SDS011;11136;48.778;9.126;2022-12-18T05:02:05;35.33;;;16.87;;
21943;SDS011;11136;48.778;9.126;2022-12-18T05:04:31;31.13;;;15.63;;
21943;SDS011;11136;48.778;9.126;2022-12-18T05:06:56;35.87;;;15.00;;
21943;SDS011;11136;48.778;9.126;2022-12-18T05:09:22;34.67;;;16.70;;
21943;SDS011;11136;48.778;9.126;2022-12-18T05:11:48;35.70;;;16.13;;
21943;SDS011;11136;48.778;9.126;2022-12-18T05:14:14;33.00;;;16.13;;
21943;SDS011;11136;48.778;9.126;2022-12-18T05:16:40;31.53;;;16.47;;
21943;SDS011;11136;48.778;9.126;2022-12-18T05:19:05;35.07;;;15.27;;
21943;SDS011;11136;48.778;9.126;2022-12-18T05:21:31;32.80;;;16.13;;
21943;SDS011;11136;48.778;9.126;2022-12-18T05:23:57;32.17;;;16.70;;
21943;SDS011;11136;48.778;9.126;2022-12-18T05:26:22;33.00;;;15.47;;
21943;SDS011;11136;48.778;9.126;2022-12-18T05:28:48;32.97;;;16.07;;
21943;SDS011;11136;48.778;9.126;2022-12-18T05:31:13;33.17;;;17.00;;
21943;SDS011;11136;48.778;9.126;2022-12-18T05:33:39;34.73;;;16.93;;
21943;SDS011;11136;48.778;9.126;2022-12-18T05:36:06;34.43;;;16.37;;
21943;SDS011;11136;48.778;9.126;2022-12-18T05:38:33;34.43;;;16.57;;
21943;SDS011;11136;48.778;9.126;2022-12-18T05:41:00;36.17;;;15.73;;
21943;SDS011;11136;48.778;9.126;2022-12-18T05:43:26;40.33;;;19.13;;
21943;SDS011;11136;48.778;9.126;2022-12-18T05:45:52;33.93;;;16.00;;
21943;SDS011;11136;48.778;9.126;2022-12-18T05:48:18;36.73;;;17.27;;
21943;SDS011;11136;48.778;9.126;2022-12-18T05:50:45;35.80;;;15.97;;
21943;SDS011;11136;48.778;9.126;2022-12-18T05:53:12;35.87;;;16.90;;
21943;SDS011;11136;48.778;9.126;2022-12-18T05:55:40;33.30;;;16.63;;
21943;SDS011;11136;48.778;9.126;2022-12-18T05:58:07;33.80;;;16.37;;
21943;SDS011;11136;48.778;9.126;2022-12-18T06:00:34;32.67;;;16.13;;
21943;SDS011;11136;48.778;9.126;2022-12-18T06:03:04;34.63;;;17.60;;
21943;SDS011;11136;48.778;9.126;2022-12-18T06:05:34;37.17;;;16.90;;
21943;SDS011;11136;48.778;9.126;2022-12-18T06:08:04;35.47;;;17.73;;
21943;SDS011;11136;48.778;9.126;2022-12-18T06:10:29;34.60;;;17.83;;
21943;SDS011;11136;48.778;9.126;2022-12-18T06:12:55;33.20;;;16.83;;
21943;SDS011;11136;48.778;9.126;2022-12-18T06:15:21;32.53;;;16.53;;
21943;SDS011;11136;48.778;9.126;2022-12-18T06:17:46;34.27;;;16.93;;
21943;SDS011;11136;48.778;9.126;2022-12-18T06:20:12;32.90;;;16.67;;
21943;SDS011;11136;48.778;9.126;2022-12-18T06:22:37;31.60;;;16.13;;
21943;SDS011;11136;48.778;9.126;2022-12-18T06:25:03;31.20;;;14.50;;
21943;SDS011;11136;48.778;9.126;2022-12-18T06:27:29;31.77;;;14.67;;
21943;SDS011;11136;48.778;9.126;2022-12-18T06:29:55;33.50;;;15.10;;
21943;SDS011;11136;48.778;9.126;2022-12-18T06:32:20;30.63;;;15.73;;
21943;SDS011;11136;48.778;9.126;2022-12-18T06:34:46;29.27;;;14.93;;
21943;SDS011;11136;48.778;9.126;2022-12-18T06:37:11;37.10;;;16.33;;
21943;SDS011;11136;48.778;9.126;2022-12-18T06:39:37;28.00;;;14.40;;
21943;SDS011;11136;48.778;9.126;2022-12-18T06:42:02;32.20;;;15.77;;
21943;SDS011;11136;48.778;9.126;2022-12-18T06:44:28;31.77;;;16.53;;
21943;SDS011;11136;48.778;9.126;2022-12-18T06:46:54;33.73;;;15.83;;
21943;SDS011;11136;48.778;9.126;2022-12-18T06:49:19;27.87;;;15.27;;
21943;SDS011;11136;48.778;9.126;2022-12-18T06:51:45;33.93;;;14.70;;
21943;SDS011;11136;48.778;9.126;2022-12-18T06:54:11;31.83;;;15.50;;
21943;SDS011;11136;48.778;9.126;2022-12-18T06:56:36;29.80;;;14.43;;
21943;SDS011;11136;48.778;9.126;2022-12-18T06:59:02;26.87;;;14.67;;
21943;SDS011;11136;48.778;9.126;2022-12-18T07:01:27;32.20;;;14.73;;
21943;SDS011;11136;48.778;9.126;2022-12-18T07:03:54;32.00;;;15.57;;
21943;SDS011;11136;48.778;9.126;2022-12-18T07:06:22;31.40;;;15.60;;
21943;SDS011;11136;48.778;9.126;2022-12-18T07:08:50;32.03;;;15.73;;
21943;SDS011;11136;48.778;9.126;2022-12-18T07:11:17;30.97;;;16.60;;
21943;SDS011;11136;48.778;9.126;2022-12-18T07:13:44;27.10;;;14.97;;
21943;SDS011;11136;48.778;9.126;2022-12-18T07:16:11;33.97;;;16.60;;
21943;SDS011;11136;48.778;9.126;2022-12-18T07:18:38;29.33;;;13.53;;
21943;SDS011;11136;48.778;9.126;2022-12-18T07:21:05;28.83;;;14.73;;
21943;SDS011;11136;48.778;9.126;2022-12-18T07:23:32;30.50;;;14.07;;
21943;SDS011;11136;48.778;9.126;2022-12-18T07:26:06;25.50;;;14.27;;
21943;SDS011;11136;48.778;9.126;2022-12-18T07:28:37;25.17;;;13.87;;
21943;SDS011;11136;48.778;9.126;2022-12-18T07:31:08;35.67;;;15.93;;
21943;SDS011;11136;48.778;9.126;2022-12-18T07:33:36;28.87;;;15.07;;
21943;SDS011;11136;48.778;9.126;2022-12-18T07:36:05;29.80;;;14.00;;
21943;SDS011;11136;48.778;9.126;2022-12-18T07:38:32;30.10;;;16.10;;
21943;SDS011;11136;48.778;9.126;2022-12-18T07:41:03;30.37;;;14.77;;
21943;SDS011;11136;48.778;9.126;2022-12-18T07:43:30;32.38;;;15.02;;
21943;SDS011;11136;48.778;9.126;2022-12-18T07:45:56;31.37;;;16.03;;
21943;SDS011;11136;48.778;9.126;2022-12-18T07:48:22;32.10;;;13.90;;
21943;SDS011;11136;48.778;9.126;2022-12-18T07:50:47;24.37;;;12.67;;
21943;SDS011;11136;48.778;9.126;2022-12-18T07:53:13;31.67;;;13.83;;
21943;SDS011;11136;48.778;9.126;2022-12-18T07:55:39;27.33;;;14.17;;
21943;SDS011;11136;48.778;9.126;2022-12-18T07:58:06;27.00;;;13.27;;
21943;SDS011;11136;48.778;9.126;2022-12-18T08:00:32;31.60;;;15.23;;
21943;SDS011;11136;48.778;9.126;2022-12-18T08:02:58;29.00;;;15.53;;
21943;SDS011;11136;48.778;9.126;2022-12-18T08:05:25;28.17;;;14.83;;
21943;SDS011;11136;48.778;9.126;2022-12-18T08:07:51;34.40;;;14.97;;
21943;SDS011;11136;48.778;9.126;2022-12-18T08:10:17;27.27;;;13.73;;
21943;SDS011;11136;48.778;9.126;2022-12-18T08:12:43;30.27;;;14.97;;
21943;SDS011;11136;48.778;9.126;2022-12-18T08:15:09;30.60;;;13.73;;
21943;SDS011;11136;48.778;9.126;2022-12-18T08:17:34;34.80;;;15.10;;
21943;SDS011;11136;48.778;9.126;2022-12-18T08:20:00;32.27;;;14.60;;
21943;SDS011;11136;48.778;9.126;2022-12-18T08:22:26;28.47;;;14.73;;
21943;SDS011;11136;48.778;9.126;2022-12-18T08:24:51;29.93;;;14.07;;
21943;SDS011;11136;48.778;9.126;2022-12-18T08:27:17;28.43;;;14.43;;
21943;SDS011;11136;48.778;9.126;2022-12-18T08:29:43;33.13;;;15.73;;
21943;SDS011;11136;48.778;9.126;2022-12-18T08:32:08;32.07;;;15.87;;
21943;SDS011;11136;48.778;9.126;2022-12-18T08:34:34;29.87;;;14.23;;
21943;SDS011;11136;48.778;9.126;2022-12-18T08:36:59;36.07;;;14.97;;
21943;SDS011;11136;48.778;9.126;2022-12-18T08:39:25;34.73;;;16.20;;
21943;SDS011;11136;48.778;9.126;2022-12-18T08:41:51;32.10;;;16.03;;
21943;SDS011;11136;48.778;9.126;2022-12-18T08:44:35;33.13;;;16.20;;
21943;SDS011;11136;48.778;9.126;2022-12-18T08:47:04;32.93;;;16.00;;
21943;SDS011;11136;48.778;9.126;2022-12-18T08:49:31;36.27;;;18.10;;
21943;SDS011;11136;48.778;9.126;2022-12-18T08:51:57;29.52;;;15.23;;
21943;SDS011;11136;48.778;9.126;2022-12-18T08:54:23;39.45;;;17.95;;
21943;SDS011;11136;48.778;9.126;2022-12-18T08:56:49;34.20;;;17.45;;
21943;SDS011;11136;48.778;9.126;2022-12-18T08:59:15;32.58;;;16.10;;
21943;SDS011;11136;48.778;9.126;2022-12-18T09:01:41;38.90;;;18.00;;
21943;SDS011;11136;48.778;9.126;2022-12-18T09:04:07;37.22;;;16.98;;
21943;SDS011;11136;48.778;9.126;2022-12-18T09:06:36;32.78;;;16.55;;
21943;SDS011;11136;48.778;9.126;2022-12-18T09:09:03;38.25;;;16.25;;
21943;SDS011;11136;48.778;9.126;2022-12-18T09:11:29;33.42;;;16.60;;
21943;SDS011;11136;48.778;9.126;2022-12-18T09:13:56;36.83;;;18.10;;
21943;SDS011;11136;48.778;9.126;2022-12-18T09:16:22;31.27;;;15.93;;
21943;SDS011;11136;48.778;9.126;2022-12-18T09:18:49;28.90;;;15.55;;
21943;SDS011;11136;48.778;9.126;2022-12-18T09:21:15;33.97;;;17.67;;
21943;SDS011;11136;48.778;9.126;2022-12-18T09:23:49;37.38;;;17.40;;
21943;SDS011;11136;48.778;9.126;2022-12-18T09:26:15;34.00;;;16.50;;
21943;SDS011;11136;48.778;9.126;2022-12-18T09:28:41;37.78;;;17.48;;
21943;SDS011;11136;48.778;9.126;2022-12-18T09:31:08;34.55;;;16.77;;
21943;SDS011;11136;48.778;9.126;2022-12-18T09:33:35;35.38;;;17.02;;
21943;SDS011;11136;48.778;9.126;2022-12-18T09:36:05;32.47;;;17.17;;
21943;SDS011;11136;48.778;9.126;2022-12-18T09:38:34;35.42;;;17.38;;
21943;SDS011;11136;48.778;9.126;2022-12-18T09:41:15;32.60;;;15.82;;
21943;SDS011;11136;48.778;9.126;2022-12-18T09:43:46;28.52;;;15.02;;
21943;SDS011;11136;48.778;9.126;2022-12-18T09:46:16;33.00;;;16.63;;
21943;SDS011;11136;48.778;9.126;2022-12-18T09:48:46;33.33;;;16.80;;
21943;SDS011;11136;48.778;9.126;2022-12-18T09:51:25;31.83;;;16.52;;
21943;SDS011;11136;48.778;9.126;2022-12-18T09:54:05;35.85;;;17.77;;
21943;SDS011;11136;48.778;9.126;2022-12-18T09:56:38;35.67;;;17.27;;
21943;SDS011;11136;48.778;9.126;2022-12-18T09:59:09;28.27;;;13.77;;
21943;SDS011;11136;48.778;9.126;2022-12-18T10:01:51;36.38;;;18.42;;
21943;SDS011;11136;48.778;9.126;2022-12-18T10:04:17;28.98;;;15.63;;
21943;SDS011;11136;48.778;9.126;2022-12-18T10:12:20;31.73;;;14.45;;
21943;SDS011;11136;48.778;9.126;2022-12-18T10:17:41;32.50;;;16.30;;
21943;SDS011;11136;48.778;9.126;2022-12-18T10:20:17;32.38;;;16.30;;
21943;SDS011;11136;48.778;9.126;2022-12-18T10:28:38;40.50;;;18.15;;
21943;SDS011;11136;48.778;9.126;2022-12-18T10:31:06;39.00;;;19.98;;
21943;SDS011;11136;48.778;9.126;2022-12-18T10:33:32;35.33;;;18.33;;
21943;SDS011;11136;48.778;9.126;2022-12-18T10:35:58;33.00;;;16.80;;
21943;SDS011;11136;48.778;9.126;2022-12-18T10:38:26;38.40;;;17.98;;
21943;SDS011;11136;48.778;9.126;2022-12-18T10:43:24;34.95;;;17.50;;
21943;SDS011;11136;48.778;9.126;2022-12-18T10:46:12;34.20;;;17.70;;
21943;SDS011;11136;48.778;9.126;2022-12-18T10:54:05;35.15;;;16.95;;
21943;SDS011;11136;48.778;9.126;2022-12-18T10:56:39;33.60;;;16.63;;
21943;SDS011;11136;48.778;9.126;2022-12-18T10:59:05;32.63;;;16.42;;
21943;SDS011;11136;48.778;9.126;2022-12-18T11:04:21;28.88;;;14.93;;
21943;SDS011;11136;48.778;9.126;2022-12-18T11:06:52;32.65;;;16.17;;
21943;SDS011;11136;48.778;9.126;2022-12-18T11:09:30;36.22;;;15.40;;
21943;SDS011;11136;48.778;9.126;2022-12-18T11:11:58;36.70;;;17.65;;
21943;SDS011;11136;48.778;9.126;2022-12-18T11:14:30;29.58;;;14.88;;
21943;SDS011;11136;48.778;9.126;2022-12-18T11:16:59;32.65;;;16.20;;
21943;SDS011;11136;48.778;9.126;2022-12-18T11:19:30;30.25;;;16.38;;
21943;SDS011;11136;48.778;9.126;2022-12-18T11:22:00;33.83;;;17.30;;
21943;SDS011;11136;48.778;9.126;2022-12-18T11:24:32;34.08;;;17.42;;
21943;SDS011;11136;48.778;9.126;2022-12-18T11:27:01;32.83;;;16.83;;
21943;SDS011;11136;48.778;9.126;2022-12-18T11:29:35;32.83;;;17.63;;
21943;SDS011;11136;48.778;9.126;2022-12-18T11:34:41;36.90;;;18.75;;
21943;SDS011;11136;48.778;9.126;2022-12-18T11:37:09;33.20;;;16.58;;
21943;SDS011;11136;48.778;9.126;2022-12-18T11:39:42;35.65;;;16.98;;
21943;SDS011;11136;48.778;9.126;2022-12-18T11:42:31;31.67;;;16.40;;
21943;SDS011;11136;48.778;9.126;2022-12-18T11:45:03;34.38;;;15.98;;
21943;SDS011;11136;48.778;9.126;2022-12-18T11:50:46;36.60;;;16.63;;
21943;SDS011;11136;48.778;9.126;2022-12-18T11:53:14;37.97;;;17.88;;
21943;SDS011;11136;48.778;9.126;2022-12-18T11:55:47;32.65;;;14.88;;
21943;SDS011;11136;48.778;9.126;2022-12-18T12:01:30;35.78;;;17.90;;
21943;SDS011;11136;48.778;9.126;2022-12-18T12:04:12;38.90;;;18.80;;
21943;SDS011;11136;48.778;9.126;2022-12-18T12:09:40;36.15;;;19.92;;
21943;SDS011;11136;48.778;9.126;2022-12-18T12:14:49;38.53;;;20.05;;
21943;SDS011;11136;48.778;9.126;2022-12-18T12:23:15;38.90;;;18.48;;
21943;SDS011;11136;48.778;9.126;2022-12-18T12:31:26;36.03;;;19.17;;
21943;SDS011;11136;48.778;9.126;2022-12-18T12:40:04;34.38;;;18.48;;
21943;SDS011;11136;48.778;9.126;2022-12-18T12:42:38;37.17;;;17.85;;
21943;SDS011;11136;48.778;9.126;2022-12-18T12:48:13;39.60;;;19.08;;
21943;SDS011;11136;48.778;9.126;2022-12-18T12:50:46;39.83;;;20.33;;
21943;SDS011;11136;48.778;9.126;2022-12-18T12:53:16;38.22;;;18.58;;
21943;SDS011;11136;48.778;9.126;2022-12-18T12:55:55;38.00;;;18.90;;
21943;SDS011;11136;48.778;9.126;2022-12-18T13:01:04;37.50;;;18.48;;
21943;SDS011;11136;48.778;9.126;2022-12-18T13:08:56;44.67;;;19.45;;
21943;SDS011;11136;48.778;9.126;2022-12-18T13:11:37;37.55;;;18.15;;
21943;SDS011;11136;48.778;9.126;2022-12-18T13:14:28;38.50;;;19.13;;
21943;SDS011;11136;48.778;9.126;2022-12-18T13:20:04;38.95;;;19.60;;
21943;SDS011;11136;48.778;9.126;2022-12-18T13:22:37;33.45;;;17.92;;
21943;SDS011;11136;48.778;9.126;2022-12-18T13:28:00;44.00;;;19.48;;
21943;SDS011;11136;48.778;9.126;2022-12-18T13:35:40;39.75;;;18.98;;
21943;SDS011;11136;48.778;9.126;2022-12-18T13:41:00;37.93;;;18.20;;
21943;SDS011;11136;48.778;9.126;2022-12-18T13:43:33;36.33;;;18.30;;
21943;SDS011;11136;48.778;9.126;2022-12-18T13:51:31;33.30;;;15.85;;
21943;SDS011;11136;48.778;9.126;2022-12-18T13:54:00;33.40;;;16.95;;
21943;SDS011;11136;48.778;9.126;2022-12-18T13:56:29;38.85;;;17.15;;
21943;SDS011;11136;48.778;9.126;2022-12-18T14:04:27;37.70;;;17.80;;
21943;SDS011;11136;48.778;9.126;2022-12-18T14:09:42;35.80;;;17.10;;
21943;SDS011;11136;48.778;9.126;2022-12-18T14:15:21;33.45;;;16.60;;
21943;SDS011;11136;48.778;9.126;2022-12-18T14:17:52;35.10;;;16.63;;
21943;SDS011;11136;48.778;9.126;2022-12-18T14:20:20;35.75;;;17.65;;
21943;SDS011;11136;48.778;9.126;2022-12-18T14:22:46;39.92;;;19.20;;
21943;SDS011;11136;48.778;9.126;2022-12-18T14:27:51;39.20;;;17.83;;
21943;SDS011;11136;48.778;9.126;2022-12-18T14:30:27;42.20;;;18.40;;
21943;SDS011;11136;48.778;9.126;2022-12-18T14:33:05;40.78;;;17.98;;
21943;SDS011;11136;48.778;9.126;2022-12-18T14:36:01;42.17;;;19.92;;
21943;SDS011;11136;48.778;9.126;2022-12-18T14:38:31;43.85;;;19.00;;
21943;SDS011;11136;48.778;9.126;2022-12-18T14:43:26;36.22;;;18.60;;
21943;SDS011;11136;48.778;9.126;2022-12-18T14:45:53;38.95;;;18.73;;
21943;SDS011;11136;48.778;9.126;2022-12-18T14:50:53;36.97;;;17.85;;
21943;SDS011;11136;48.778;9.126;2022-12-18T14:53:34;44.78;;;19.80;;
21943;SDS011;11136;48.778;9.126;2022-12-18T14:56:22;41.50;;;20.05;;
21943;SDS011;11136;48.778;9.126;2022-12-18T14:58:53;41.38;;;19.35;;
21943;SDS011;11136;48.778;9.126;2022-12-18T15:01:25;43.92;;;19.08;;
21943;SDS011;11136;48.778;9.126;2022-12-18T15:03:52;45.33;;;20.92;;
21943;SDS011;11136;48.778;9.126;2022-12-18T15:08:53;43.15;;;19.10;;
21943;SDS011;11136;48.778;9.126;2022-12-18T15:16:55;39.75;;;18.90;;
21943;SDS011;11136;48.778;9.126;2022-12-18T15:19:21;39.85;;;18.90;;
21943;SDS011;11136;48.778;9.126;2022-12-18T15:21:51;36.67;;;19.50;;
21943;SDS011;11136;48.778;9.126;2022-12-18T15:24:18;43.00;;;21.05;;
21943;SDS011;11136;48.778;9.126;2022-12-18T15:26:46;44.53;;;21.00;;
21943;SDS011;11136;48.778;9.126;2022-12-18T15:29:20;41.70;;;20.05;;
21943;SDS011;11136;48.778;9.126;2022-12-18T15:32:00;46.08;;;21.20;;
21943;SDS011;11136;48.778;9.126;2022-12-18T15:34:28;45.75;;;21.73;;
21943;SDS011;11136;48.778;9.126;2022-12-18T15:36:53;42.92;;;20.42;;
21943;SDS011;11136;48.778;9.126;2022-12-18T15:39:19;42.90;;;20.85;;
21943;SDS011;11136;48.778;9.126;2022-12-18T15:41:45;43.80;;;22.25;;
21943;SDS011;11136;48.778;9.126;2022-12-18T15:44:29;41.92;;;21.48;;
21943;SDS011;11136;48.778;9.126;2022-12-18T15:46:55;47.65;;;23.35;;
21943;SDS011;11136;48.778;9.126;2022-12-18T15:49:21;38.72;;;20.73;;
21943;SDS011;11136;48.778;9.126;2022-12-18T15:51:51;45.45;;;23.67;;
21943;SDS011;11136;48.778;9.126;2022-12-18T15:54:19;45.60;;;21.58;;
21943;SDS011;11136;48.778;9.126;2022-12-18T15:57:09;46.25;;;21.95;;
21943;SDS011;11136;48.778;9.126;2022-12-18T15:59:48;46.72;;;21.92;;
21943;SDS011;11136;48.778;9.126;2022-12-18T16:02:15;40.15;;;20.80;;
21943;SDS011;11136;48.778;9.126;2022-12-18T16:04:42;48.78;;;21.75;;
21943;SDS011;11136;48.778;9.126;2022-12-18T16:07:08;42.80;;;20.65;;
21943;SDS011;11136;48.778;9.126;2022-12-18T16:09:34;43.33;;;20.70;;
21943;SDS011;11136;48.778;9.126;2022-12-18T16:12:00;56.67;;;21.55;;
21943;SDS011;11136;48.778;9.126;2022-12-18T16:14:26;45.78;;;20.77;;
21943;SDS011;11136;48.778;9.126;2022-12-18T16:16:57;43.78;;;21.70;;
21943;SDS011;11136;48.778;9.126;2022-12-18T16:19:25;43.78;;;22.10;;
21943;SDS011;11136;48.778;9.126;2022-12-18T16:21:52;51.90;;;23.13;;
21943;SDS011;11136;48.778;9.126;2022-12-18T16:24:29;44.97;;;22.02;;
21943;SDS011;11136;48.778;9.126;2022-12-18T16:26:58;47.92;;;23.83;;
21943;SDS011;11136;48.778;9.126;2022-12-18T16:29:25;44.55;;;22.75;;
21943;SDS011;11136;48.778;9.126;2022-12-18T16:31:56;54.90;;;24.83;;
21943;SDS011;11136;48.778;9.126;2022-12-18T16:34:24;43.97;;;22.23;;
21943;SDS011;11136;48.778;9.126;2022-12-18T16:36:58;48.53;;;22.20;;
21943;SDS011;11136;48.778;9.126;2022-12-18T16:39:25;47.90;;;22.73;;
21943;SDS011;11136;48.778;9.126;2022-12-18T16:41:51;49.55;;;22.98;;
21943;SDS011;11136;48.778;9.126;2022-12-18T16:44:17;42.88;;;20.48;;
21943;SDS011;11136;48.778;9.126;2022-12-18T16:46:44;41.97;;;21.17;;